Latest Weather Observations for Casey*

IDT60801

Issued at 6:21 pm EDT Saturday 28 November 2020 (issued every 10 minutes, with the page automatically refreshed every 10 minutes)

About weather observations | Map of weather stations | Latest weather observations for ANT | Other Formats
Station Details ID: 300017 Name: CASEY Lat: -66.28 Lon: 110.52 Height: 40.0 m
Data from the previous 72 hours. | See also: Recent months at Casey*
Date/Time
EDT
Temp
°C
App
Temp
°C
Dew
Point
°C
Rel
Hum
%
Delta-T
°C
Wind Press
QNH
hPa
Press
MSL
hPa
Rain since
9am
mm
Dir  Spd
km/h
Gust
km/h
Spd
kts
Gust
kts
28/06:00pm -2.4 -7.8 -14.1 40 - WSW 11 13 6 7 977.8 - -
28/05:30pm -2.3 -7.6 -11.8 48 - WSW 11 13 6 7 977.8 - -
28/05:00pm -2.5 -7.4 -11.2 51 - S 9 11 5 6 977.9 978.3 -
28/04:30pm -2.8 -7.6 -10.8 54 - S 9 13 5 7 978.0 - -
28/04:00pm -2.7 -7.2 -11.7 50 - S 7 9 4 5 978.0 - -
28/03:30pm -3.0 -7.6 -12.7 47 - S 7 11 4 6 978.1 - -
28/03:00pm -3.0 -7.5 -12.4 48 - S 7 9 4 5 978.2 - -
28/02:30pm -3.4 -8.3 -12.3 50 - S 9 11 5 6 978.1 - -
28/02:00pm -3.5 -8.1 -13.2 47 - SE 7 9 4 5 978.0 978.4 -
28/01:30pm -4.0 -8.6 -13.9 46 - S 7 9 4 5 977.9 - -
28/01:00pm -3.6 -8.2 -13.5 46 - S 7 9 4 5 977.9 - -
28/12:30pm -3.4 -7.9 -14.4 42 - SE 6 7 3 4 977.8 - -
28/12:00pm -4.0 -8.6 -13.4 48 - SSE 7 9 4 5 977.8 - -
28/11:30am -4.4 -9.4 -13.0 51 - ESE 9 11 5 6 977.7 - -
28/11:00am -4.7 -10.8 -12.3 55 - E 15 17 8 9 977.7 978.1 -
28/10:30am -4.4 -9.8 -13.2 50 - E 11 15 6 8 977.7 - -
28/10:00am -5.3 -11.4 -13.1 54 - E 15 17 8 9 977.6 - -
28/09:30am -5.7 -12.6 -14.2 51 - E 19 22 10 12 977.7 - -
28/09:00am -6.3 -13.8 -13.8 55 - E 22 26 12 14 977.7 - -
28/08:30am -6.4 -14.3 -14.1 54 - E 24 30 13 16 977.6 - -
28/08:00am -6.8 -15.5 -14.5 54 - E 28 33 15 18 977.5 977.9 -
28/07:30am -6.9 -14.8 -14.8 53 - ENE 24 28 13 15 977.5 - -
28/07:00am -8.2 -16.9 -15.8 54 - E 28 35 15 19 977.6 - -
28/06:30am -6.7 -15.7 -14.2 55 - E 30 33 16 18 977.6 - -
28/06:00am -8.3 -15.8 -14.1 63 - E 22 26 12 14 977.6 - -
28/05:30am -8.2 -16.7 -12.3 72 - ESE 28 32 15 17 977.4 - -
28/05:00am -8.6 -18.0 -14.9 60 - E 32 35 17 19 977.4 977.8 -
28/04:30am -6.4 -14.3 -14.8 51 - E 24 32 13 17 977.6 - -
28/04:00am -8.3 -17.0 -15.1 58 - E 28 30 15 16 977.6 - -
28/03:30am -7.6 -16.6 -14.2 59 - E 30 32 16 17 977.6 - -
28/03:00am -7.5 -15.4 -13.7 61 - ESE 24 28 13 15 977.6 - -
28/02:30am -7.1 -11.9 -10.6 76 - E 9 15 5 8 977.7 - -
28/02:00am -6.8 -10.7 -10.6 74 - ESE 4 11 2 6 977.9 978.3 -
28/01:30am -5.9 -10.7 -10.6 69 - SSE 9 13 5 7 977.9 - -
28/01:00am -5.3 -10.1 -10.1 69 - SSE 9 11 5 6 977.8 - -
28/12:30am -4.2 -8.3 -9.2 68 - SE 6 7 3 4 977.8 - -
28/12:00am -4.3 -8.4 -8.9 70 - NE 6 7 3 4 977.9 - -
 
Date/Time
EDT
Temp
°C
App
Temp
°C
Dew
Point
°C
Rel
Hum
%
Delta-T
°C
Wind Press
QNH
hPa
Press
MSL
hPa
Rain since
9am
mm
Dir  Spd
km/h
Gust
km/h
Spd
kts
Gust
kts
27/11:30pm -4.2 -8.9 -8.7 71 - E 9 11 5 6 977.8 - -
27/11:00pm -3.6 -8.2 -7.7 73 - NNE 9 11 5 6 977.8 978.2 -
27/10:30pm -3.5 -8.8 -7.6 73 - NNE 13 15 7 8 977.9 - -
27/10:00pm -3.4 -8.4 -7.7 72 - NNE 11 15 6 8 977.9 - -
27/09:30pm -3.4 -8.8 -7.9 71 - NNE 13 17 7 9 977.9 - -
27/09:00pm -3.3 -9.5 -8.5 67 - NNE 17 20 9 11 977.8 - -
27/08:30pm -3.1 -8.9 -8.3 67 - NNE 15 19 8 10 977.7 - -
27/08:00pm -3.0 -9.5 -8.1 68 - NNE 19 22 10 12 977.7 978.1 -
27/07:30pm -2.8 -9.3 -7.9 68 - NNE 19 22 10 12 977.6 - -
27/07:00pm -2.9 -9.6 -8.1 67 - NNE 20 26 11 14 977.5 - -
27/06:30pm -2.7 -9.2 -8.3 65 - NNE 19 24 10 13 977.5 - -
27/06:00pm -2.9 -10.1 -9.1 62 - NNE 22 26 12 14 977.4 - -
27/05:30pm -2.0 -8.6 -8.7 60 - NE 19 24 10 13 977.3 - -
27/05:00pm -2.6 -7.3 -9.5 59 - ENE 9 11 5 6 977.4 977.8 -
27/04:30pm -2.1 -6.8 -8.6 61 - ENE 9 11 5 6 977.3 - -
27/04:00pm -2.3 -7.4 -9.0 60 - NNE 11 15 6 8 977.2 - -
27/03:30pm -2.8 -8.3 -9.9 58 - N 13 17 7 9 977.2 - -
27/03:00pm -2.6 -7.8 -10.4 55 - NNE 11 17 6 9 977.1 - -
27/02:30pm -3.0 -8.2 -10.1 58 - NNE 11 15 6 8 977.0 - -
27/02:00pm -3.0 -8.2 -11.2 53 - ENE 11 13 6 7 976.9 977.2 -
27/01:30pm -2.5 -8.4 -10.0 56 - N 15 17 8 9 976.6 - -
27/01:00pm -3.7 -8.3 -12.6 50 - WNW 7 9 4 5 976.7 - -
27/12:30pm -4.2 -9.1 -12.6 52 - WSW 9 11 5 6 976.6 - -
27/12:00pm -4.7 -9.2 -12.1 56 - SSW 7 9 4 5 976.5 - -
27/11:30am -4.7 -9.1 -13.5 50 - W 6 9 3 5 976.4 - -
27/11:00am -4.2 -8.6 -12.8 51 - N 6 7 3 4 976.4 976.7 -
27/10:30am -4.5 -10.2 -13.3 50 - NE 13 19 7 10 976.3 - -
27/10:00am -4.7 -13.0 -14.5 46 - E 26 35 14 19 976.2 - -
27/09:40am -5.8 -14.5 -14.8 49 - E 28 35 15 19 976.0 - -
27/09:30am -5.2 -10.3 -15.2 45 - S 9 17 5 9 976.1 - -
27/09:00am -5.1 -9.6 -15.4 44 - S 6 11 3 6 976.1 - -
27/08:30am -7.2 -13.8 -15.6 51 - S 17 19 9 10 976.0 - -
27/08:00am -7.5 -14.7 -15.2 54 - S 20 20 11 11 975.9 976.2 -
27/07:30am -6.1 -10.8 -15.8 46 - ENE 7 11 4 6 976.0 - -
27/07:00am -7.3 -13.5 -15.2 53 - ENE 15 20 8 11 976.0 - -
27/06:30am -7.8 -15.8 -16.1 51 - E 24 30 13 16 976.0 - -
27/06:00am -8.9 -16.1 -16.0 56 - E 20 26 11 14 976.0 - -
27/05:30am -7.6 -14.4 -12.3 69 - E 19 24 10 13 975.8 - -
27/05:00am -8.5 -15.0 -13.1 69 - E 17 20 9 11 975.7 976.0 -
27/04:30am -8.1 -15.2 -13.5 65 - E 20 22 11 12 975.7 - -
27/04:00am -7.7 -14.7 -12.2 70 - E 20 24 11 13 975.5 - -
27/03:30am -7.0 -13.0 -11.3 71 - E 15 15 8 8 975.5 - -
27/03:00am -7.5 -12.8 -12.4 68 - E 11 15 6 8 975.5 - -
27/02:30am -8.1 -13.8 -13.1 67 - ESE 13 17 7 9 975.5 - -
27/02:00am -7.9 -13.9 -11.4 76 - ESE 15 15 8 8 975.5 975.8 -
27/01:30am -7.1 -12.3 -11.3 72 - ESE 11 13 6 7 975.4 - -
27/01:00am -6.5 -11.7 -11.0 70 - SE 11 11 6 6 975.5 - -
27/12:30am -5.7 -10.5 -10.8 67 - SE 9 9 5 5 975.7 - -
27/12:00am -5.0 -9.4 -10.9 63 - SE 7 9 4 5 975.7 - -
 
Date/Time
EDT
Temp
°C
App
Temp
°C
Dew
Point
°C
Rel
Hum
%
Delta-T
°C
Wind Press
QNH
hPa
Press
MSL
hPa
Rain since
9am
mm
Dir  Spd
km/h
Gust
km/h
Spd
kts
Gust
kts
26/11:30pm -3.9 -7.0 -10.7 59 - CALM 0 0 0 0 975.9 - -
26/11:00pm -3.4 -7.8 -10.5 58 - WSW 7 9 4 5 976.1 976.4 -
26/10:30pm -3.4 -7.8 -10.7 57 - SW 7 9 4 5 976.3 - -
26/10:00pm -3.6 -8.4 -10.2 60 - WNW 9 13 5 7 976.3 - -
26/09:30pm -3.4 -8.2 -10.0 60 - NW 9 11 5 6 976.3 - -
26/09:00pm -3.0 -7.4 -10.3 57 - WSW 7 9 4 5 976.3 - -
26/08:30pm -3.2 -7.0 -9.6 61 - WSW 4 7 2 4 976.3 - -
26/08:00pm -3.1 -7.5 -10.2 58 - WSW 7 11 4 6 976.3 976.6 -
26/07:30pm -3.4 -8.2 -10.0 60 - NW 9 11 5 6 976.2 - -
26/07:00pm -3.5 -8.3 -10.3 59 - W 9 11 5 6 976.1 - -
26/06:30pm -2.9 -7.3 -10.0 58 - W 7 9 4 5 976.1 - -
26/06:00pm -3.3 -8.1 -10.4 58 - NW 9 11 5 6 976.1 - -
26/05:30pm -3.4 -7.9 -11.3 54 - NNW 7 11 4 6 975.9 - -
26/05:00pm -3.5 -7.8 -11.0 56 - NW 6 7 3 4 975.9 976.2 -
26/04:30pm -3.5 -7.0 -11.4 54 - W 2 6 1 3 975.9 - -
26/04:00pm -3.5 -7.5 -12.1 51 - SW 4 7 2 4 975.8 - -
26/03:30pm -3.8 -7.8 -12.4 51 - NE 4 7 2 4 975.6 - -
26/03:00pm -4.5 -8.9 -12.4 54 - S 6 9 3 5 975.5 - -
26/02:30pm -4.9 -9.5 -13.0 53 - S 7 9 4 5 975.5 - -
26/02:00pm -3.4 -7.0 -12.3 50 - NNE 2 6 1 3 975.4 975.7 -
26/01:30pm -4.3 -8.8 -14.2 46 - NE 6 9 3 5 975.3 - -
26/01:00pm -5.2 -9.8 -16.1 42 - ENE 6 7 3 4 975.3 - -
26/12:30pm -5.0 -9.4 -13.8 50 - SE 6 7 3 4 975.4 - -
26/12:00pm -5.0 -9.1 -14.5 47 - ENE 4 7 2 4 975.4 - -
26/11:30am -5.7 -10.2 -14.0 52 - NNE 6 9 3 5 975.4 - -
26/11:00am -6.5 -11.2 -14.2 54 - NNE 7 9 4 5 975.4 975.7 -
26/10:30am -6.6 -10.7 -13.9 56 - ESE 4 7 2 4 975.3 - -
26/10:00am -7.1 -11.5 -13.5 60 - E 6 9 3 5 975.3 - -
26/09:30am -8.0 -14.2 -14.0 62 - ESE 15 19 8 10 975.3 - -
26/09:00am -8.5 -14.7 -14.3 63 - ESE 15 19 8 10 975.3 - -
26/08:30am -9.5 -16.1 -15.0 64 - ESE 17 20 9 11 975.2 - -
26/08:00am -9.3 -15.5 -13.9 69 - ESE 15 19 8 10 975.3 975.6 -
26/07:30am -10.2 -17.2 -14.8 69 - ESE 19 22 10 12 975.4 - -
26/07:00am -10.5 -16.7 -14.5 72 - ESE 15 17 8 9 975.4 - -
26/06:30am -10.0 -15.8 -14.2 71 - SE 13 17 7 9 975.5 - -
26/06:00am -10.6 -16.0 -14.6 72 - ESE 11 15 6 8 975.6 - -
26/05:30am -9.3 -14.7 -13.4 72 - SE 11 13 6 7 975.6 - -
26/05:00am -9.3 -14.7 -13.6 71 - ESE 11 13 6 7 975.8 976.1 -
26/04:30am -9.2 -14.6 -13.8 69 - ESE 11 13 6 7 975.9 - -
26/04:00am -9.1 -14.1 -14.1 67 - E 9 11 5 6 975.9 - -
26/03:30am -10.4 -17.0 -15.0 69 - E 17 19 9 10 976.0 - -
26/03:00am -9.6 -16.2 -14.6 67 - E 17 19 9 10 976.1 - -
26/02:30am -8.0 -13.1 -14.8 58 - ESE 9 11 5 6 976.3 - -
26/02:00am -8.5 -13.9 -14.3 63 - E 11 13 6 7 976.4 976.7 -
26/01:30am -8.6 -14.3 -13.4 68 - E 13 15 7 8 976.7 - -
26/01:00am -8.4 -14.1 -12.9 70 - E 13 15 7 8 976.9 - -
26/12:30am -7.4 -13.5 -12.1 69 - E 15 17 8 9 977.0 - -
26/12:00am -6.1 -11.3 -11.4 66 - E 11 13 6 7 977.1 - -
 
Date/Time
EDT
Temp
°C
App
Temp
°C
Dew
Point
°C
Rel
Hum
%
Delta-T
°C
Wind Press
QNH
hPa
Press
MSL
hPa
Rain since
9am
mm
Dir  Spd
km/h
Gust
km/h
Spd
kts
Gust
kts
25/11:30pm -5.3 -10.5 -11.2 63 - E 11 13 6 7 977.4 - -
25/11:00pm -4.8 -10.1 -11.8 58 - NNE 11 13 6 7 977.6 978.0 -
25/10:30pm -4.5 -9.4 -11.3 59 - NNE 9 13 5 7 977.8 - -
25/10:00pm -4.3 -9.2 -11.3 58 - NNE 9 13 5 7 977.8 - -
25/09:30pm -3.7 -8.6 -11.4 55 - NNE 9 11 5 6 978.0 - -

Other formats

Comma delimited format used in spreadsheet applications
http://www.bom.gov.au/fwo/IDT60803/IDT60803.89611.axf

JavaScript Object Notation format (JSON) in row-major order
http://www.bom.gov.au/fwo/IDT60803/IDT60803.89611.json

Data quality

Most of these data are generated automatically and are frequently updated. Quality checks on data are not normally performed. It is possible for incorrect values to appear. Refer to information at About Latest Weather Observations and please check the disclaimer before using these data.